Time;durP1;ratioP1;P1;durP2;ratioP2;P2;SDS_P1;SDS_P2;PMS_P1;PMS_P2;Temp;Humidity;BMP_temperature;BMP_pressure;BME280_temperature;BME280_humidity;BME280_pressure;Samples;Min_cycle;Max_cycle;Signal;HPM_P1;HPM_P2
2021/11/04 00:00:21;;;;;;;15.60;13.17;;;15.70;99.90;;;16.39;55.34;99813.69;4967603;28;98254;-47
2021/11/04 00:02:47;;;;;;;15.00;12.50;;;15.60;99.90;;;16.30;53.53;99820.50;4985378;28;101831;-48
2021/11/04 00:05:14;;;;;;;28.33;22.47;;;15.50;99.90;;;16.24;54.98;99820.97;4972611;28;97942;-49
2021/11/04 00:07:41;;;;;;;33.30;25.40;;;15.40;99.90;;;15.99;50.67;99829.00;4970926;27;97079;-50
2021/11/04 00:10:10;;;;;;;27.33;20.63;;;15.20;99.90;;;16.06;55.40;99823.16;4972099;28;98566;-49
2021/11/04 00:12:36;;;;;;;30.00;23.70;;;15.20;99.90;;;16.06;53.48;99823.16;4991783;27;97635;-51
2021/11/04 00:15:02;;;;;;;13.00;10.63;;;15.20;99.90;;;16.04;54.87;99818.88;4978165;27;98699;-52
2021/11/04 00:17:28;;;;;;;11.23;9.30;;;15.20;99.90;;;15.98;56.25;99824.66;4970242;28;97328;-49
2021/11/04 00:19:54;;;;;;;34.33;24.63;;;15.10;99.90;;;15.93;56.31;99816.16;4991732;27;99160;-49
2021/11/04 00:22:20;;;;;;;31.27;24.37;;;15.00;99.90;;;15.94;56.38;99821.34;4958434;28;99508;-54
2021/11/04 00:24:46;;;;;;;33.70;25.83;;;15.00;99.90;;;15.93;54.95;99821.47;4966376;28;99627;-49
2021/11/04 00:27:12;;;;;;;35.97;27.93;;;15.00;99.90;;;16.01;56.02;99824.41;4972769;28;99007;-49
2021/11/04 00:29:38;;;;;;;37.93;28.47;;;15.20;99.90;;;15.98;55.90;99828.16;4965969;27;98130;-50
2021/11/04 00:32:05;;;;;;;38.00;28.60;;;15.20;99.90;;;16.05;54.70;99836.53;4969976;28;100764;-49
2021/11/04 00:34:31;;;;;;;38.87;28.37;;;15.30;99.90;;;15.98;54.16;99832.63;5002556;27;98275;-50
2021/11/04 00:36:57;;;;;;;20.40;16.60;;;15.20;99.90;;;16.02;56.34;99842.06;4989951;27;97603;-53
2021/11/04 00:39:23;;;;;;;36.30;28.57;;;15.10;99.90;;;16.07;55.46;99834.66;4967761;28;99717;-52
2021/11/04 00:41:49;;;;;;;43.70;32.63;;;15.30;99.90;;;16.07;54.99;99831.97;4970906;28;98748;-51
2021/11/04 00:44:15;;;;;;;45.53;33.83;;;15.20;99.90;;;16.03;53.06;99828.66;4970818;28;98336;-53
2021/11/04 00:46:41;;;;;;;49.57;36.93;;;15.30;99.90;;;16.02;55.00;99823.47;4965861;28;97350;-54
2021/11/04 00:49:07;;;;;;;42.90;32.63;;;15.20;99.90;;;16.12;55.96;99836.97;4987147;27;97660;-54
2021/11/04 00:51:34;;;;;;;50.90;36.97;;;15.30;99.90;;;16.03;56.14;99835.78;4967421;28;100622;-51
2021/11/04 00:54:00;;;;;;;18.00;15.57;;;15.20;99.90;;;16.13;56.31;99839.50;4971329;27;100877;-55
2021/11/04 00:56:26;;;;;;;45.93;33.70;;;15.30;99.90;;;16.20;55.69;99840.78;4972502;28;99698;-51
2021/11/04 00:58:52;;;;;;;46.50;32.67;;;15.50;99.90;;;16.26;55.59;99835.00;4971088;27;97478;-53
2021/11/04 01:01:23;;;;;;;13.43;11.73;;;15.60;99.90;;;16.31;55.44;99832.00;4972137;28;98997;-50
2021/11/04 01:03:51;;;;;;;11.97;10.10;;;15.60;99.90;;;16.34;55.68;99832.63;4961345;28;103310;-48
2021/11/04 01:06:20;;;;;;;25.80;20.53;;;15.60;99.90;;;16.36;55.32;99833.41;4968909;27;98525;-49
2021/11/04 01:08:47;;;;;;;33.17;23.77;;;15.60;99.90;;;16.38;55.25;99827.13;4963120;28;97601;-55
2021/11/04 01:11:14;;;;;;;17.40;14.60;;;15.50;99.90;;;16.38;55.54;99827.13;4990098;27;98950;-53
2021/11/04 01:13:40;;;;;;;21.93;16.90;;;15.50;99.90;;;16.39;55.58;99821.69;4997085;27;99515;-47
2021/11/04 01:16:05;;;;;;;29.20;22.23;;;15.50;99.90;;;16.38;55.34;99821.78;4968651;28;97553;-55
2021/11/04 01:18:31;;;;;;;45.50;32.57;;;15.50;99.90;;;16.35;55.10;99823.72;4968802;28;96980;-54
2021/11/04 01:20:57;;;;;;;53.13;38.87;;;15.40;99.90;;;16.34;55.02;99827.31;4992555;27;98718;-52
2021/11/04 01:23:23;;;;;;;53.73;39.43;;;15.40;99.90;;;16.29;52.61;99816.16;4991928;28;98617;-48
2021/11/04 01:25:50;;;;;;;48.30;33.03;;;15.40;99.90;;;16.31;54.76;99808.91;4991921;28;97570;-49
2021/11/04 01:28:17;;;;;;;58.10;41.77;;;15.40;99.90;;;16.22;51.75;99814.91;4994000;27;97449;-53
2021/11/04 01:30:43;;;;;;;26.70;19.57;;;15.40;99.90;;;16.25;55.64;99811.19;4989256;28;100778;-50
2021/11/04 01:33:10;;;;;;;71.20;47.17;;;15.40;99.90;;;16.03;53.66;99822.50;5009009;28;100004;-54
2021/11/04 01:35:36;;;;;;;36.47;27.10;;;15.30;99.90;;;16.20;55.88;99835.47;4986773;28;104797;-53
2021/11/04 01:38:06;;;;;;;58.00;40.03;;;15.30;99.90;;;16.23;53.54;99824.59;5022614;27;97005;-48
2021/11/04 01:40:34;;;;;;;58.97;41.53;;;15.40;99.90;;;16.26;55.50;99824.38;4982740;27;100239;-50
2021/11/04 01:43:00;;;;;;;57.50;39.47;;;15.50;99.90;;;16.23;55.62;99824.59;4991800;28;100072;-54
2021/11/04 01:45:26;;;;;;;61.63;43.40;;;15.40;99.90;;;16.20;55.54;99824.81;4991709;27;97419;-52
2021/11/04 01:47:53;;;;;;;61.80;43.40;;;15.40;99.90;;;16.16;50.96;99823.31;4995015;28;97229;-52
2021/11/04 01:50:22;;;;;;;66.73;43.93;;;15.50;99.90;;;16.02;54.97;99826.97;4995683;27;97295;-50
2021/11/04 01:52:50;;;;;;;65.70;44.87;;;15.20;99.90;;;16.12;55.63;99827.16;4987988;28;104705;-53
2021/11/04 01:55:19;;;;;;;68.13;45.07;;;15.40;99.90;;;15.98;50.14;99828.16;4996768;28;97961;-53
2021/11/04 01:57:45;;;;;;;70.27;45.40;;;15.40;99.90;;;15.90;51.35;99826.97;4995823;27;96980;-49
2021/11/04 02:00:13;;;;;;;61.57;42.83;;;15.30;99.90;;;15.90;55.97;99832.31;4994128;27;104016;-52
2021/11/04 02:02:45;;;;;;;57.03;39.03;;;15.20;99.90;;;15.91;56.18;99828.69;4985548;27;97962;-52
2021/11/04 02:05:17;;;;;;;68.67;46.63;;;15.20;99.90;;;15.85;55.29;99834.44;4996873;28;97411;-52
2021/11/04 02:08:20;;;;;;;65.90;43.90;;;15.10;99.90;;;15.86;55.77;99822.84;5006763;27;97686;-52
2021/11/04 02:10:55;;;;;;;62.43;43.50;;;15.20;99.90;;;15.83;55.85;99831.03;4988914;27;100518;-53
2021/11/04 02:13:34;;;;;;;61.47;41.03;;;15.10;99.90;;;15.84;55.48;99832.75;4997789;28;97246;-52
2021/11/04 02:16:02;;;;;;;63.00;42.10;;;15.10;99.90;;;15.77;54.75;99821.72;4994656;28;98265;-51
2021/11/04 02:18:32;;;;;;;45.83;29.40;;;15.00;99.90;;;15.85;56.33;99813.16;4988455;28;97093;-49
2021/11/04 02:21:31;;;;;;;67.00;44.90;;;15.00;99.90;;;15.86;55.78;99813.06;4976539;28;98506;-51
2021/11/04 02:24:49;;;;;;;64.53;42.57;;;15.10;99.90;;;15.88;55.84;99816.47;4987743;28;102486;-49
2021/11/04 02:27:15;;;;;;;68.07;43.43;;;15.10;99.90;;;15.75;53.83;99819.13;4932958;28;97381;-49
2021/11/04 02:29:43;;;;;;;65.40;42.67;;;15.00;99.90;;;15.46;54.53;99817.59;5005593;27;101638;-50
2021/11/04 02:32:11;;;;;;;64.23;43.43;;;14.70;99.90;;;15.60;56.25;99820.19;4988325;28;97719;-51
2021/11/04 02:34:40;;;;;;;66.10;43.00;;;14.90;99.90;;;15.64;56.81;99840.31;4973988;28;98528;-47
2021/11/04 02:37:08;;;;;;;64.27;42.33;;;14.90;99.90;;;15.69;56.17;99832.00;4993582;28;97419;-49
2021/11/04 02:39:35;;;;;;;64.43;42.30;;;15.00;99.90;;;15.60;52.48;99841.47;4989581;28;97328;-50
2021/11/04 02:42:03;;;;;;;72.60;43.10;;;15.00;99.90;;;15.54;55.37;99836.56;4992201;27;97706;-50
2021/11/04 02:44:29;;;;;;;66.93;41.53;;;14.90;99.90;;;15.40;52.10;99839.31;4986763;27;98781;-53
2021/11/04 02:46:57;;;;;;;64.30;41.67;;;14.80;99.90;;;15.32;54.88;99846.94;4998514;27;97259;-47
2021/11/04 02:49:25;;;;;;;65.30;42.53;;;14.70;99.90;;;15.13;52.87;99848.19;4988907;27;97440;-54
2021/11/04 02:51:52;;;;;;;62.03;38.87;;;14.50;99.90;;;15.16;57.30;99847.97;5000432;27;97885;-51
2021/11/04 02:54:18;;;;;;;64.60;40.07;;;14.50;99.90;;;15.15;54.80;99856.03;4988404;28;97215;-53
2021/11/04 02:56:54;;;;;;;63.00;40.97;;;14.60;99.90;;;15.21;55.47;99854.81;4983142;28;97889;-50
2021/11/04 02:59:25;;;;;;;65.53;40.20;;;14.60;99.90;;;15.25;57.36;99850.97;4987914;28;97323;-47
2021/11/04 03:01:55;;;;;;;60.70;38.93;;;14.60;99.90;;;15.25;57.21;99850.97;4975917;28;102975;-47
2021/11/04 03:04:22;;;;;;;63.10;40.83;;;14.60;99.90;;;15.18;56.40;99855.84;4991970;27;99081;-53
2021/11/04 03:06:48;;;;;;;65.67;40.27;;;14.50;99.90;;;15.15;56.19;99859.56;4989758;27;97212;-47
2021/11/04 03:09:17;;;;;;;66.10;40.07;;;14.50;99.90;;;15.13;54.57;99864.13;4990727;28;97379;-48
2021/11/04 03:11:43;;;;;;;63.90;40.07;;;14.50;99.90;;;15.27;56.80;99857.03;4985945;28;99097;-49
2021/11/04 03:14:09;;;;;;;62.90;38.83;;;14.60;99.90;;;15.40;57.24;99860.56;4999210;27;96973;-47
2021/11/04 03:16:42;;;;;;;59.33;37.97;;;14.80;99.90;;;15.46;56.52;99860.13;4987763;27;96885;-51
2021/11/04 03:19:11;;;;;;;62.63;38.73;;;14.80;99.90;;;15.51;54.50;99866.00;4997527;27;97100;-51
2021/11/04 03:21:44;;;;;;;63.90;39.07;;;14.90;99.90;;;15.45;55.28;99863.75;4992566;27;97768;-47
2021/11/04 03:24:11;;;;;;;62.43;39.80;;;14.80;99.90;;;15.50;56.49;99855.47;4991294;28;98376;-47
2021/11/04 03:26:42;;;;;;;63.00;38.80;;;14.90;99.90;;;15.42;54.87;99858.66;4977831;27;99439;-52
2021/11/04 03:29:10;;;;;;;67.03;39.27;;;14.80;99.90;;;15.29;54.70;99857.78;4978727;28;98429;-54
2021/11/04 03:31:38;;;;;;;61.73;38.30;;;14.60;99.90;;;15.14;54.39;99865.81;4985150;27;99393;-52
2021/11/04 03:34:05;;;;;;;63.83;37.77;;;14.40;99.90;;;15.18;56.34;99866.47;4993509;28;97116;-50
2021/11/04 03:36:33;;;;;;;63.93;38.50;;;14.40;99.90;;;15.18;55.98;99861.16;4992563;28;97394;-50
2021/11/04 03:39:00;;;;;;;67.07;39.93;;;14.50;99.90;;;15.20;55.02;99858.41;4990564;27;96743;-51
2021/11/04 03:41:27;;;;;;;60.03;36.43;;;14.60;99.90;;;15.17;53.49;99865.59;4993561;28;100363;-48
2021/11/04 03:43:53;;;;;;;54.83;33.13;;;14.60;99.90;;;15.21;57.17;99854.81;4991609;28;111327;-51
2021/11/04 03:46:20;;;;;;;65.30;38.40;;;14.60;99.90;;;15.22;54.57;99861.81;4997131;27;97257;-52
2021/11/04 03:48:47;;;;;;;57.47;36.43;;;14.70;99.90;;;15.29;56.13;99857.78;4987246;27;99185;-48
2021/11/04 03:51:13;;;;;;;63.33;38.93;;;14.70;99.90;;;15.12;54.72;99861.56;5000291;27;97014;-51
2021/11/04 03:53:41;;;;;;;64.97;39.60;;;14.60;99.90;;;15.06;56.53;99851.38;4981386;28;99428;-49
2021/11/04 03:56:08;;;;;;;60.20;36.80;;;14.50;99.90;;;15.06;55.13;99862.84;5000125;27;96790;-50
2021/11/04 03:58:39;;;;;;;59.07;37.40;;;14.50;99.90;;;15.11;56.51;99874.00;4994553;28;97200;-49
2021/11/04 04:01:05;;;;;;;63.30;37.90;;;14.50;99.90;;;14.99;51.63;99874.81;4992037;27;98631;-52
2021/11/04 04:03:31;;;;;;;34.33;24.13;;;14.50;99.90;;;15.11;57.17;99875.81;4996764;28;97170;-53
2021/11/04 04:06:07;;;;;;;61.03;37.43;;;14.40;99.90;;;15.13;56.93;99880.06;4990869;28;100738;-51
2021/11/04 04:08:36;;;;;;;55.93;35.43;;;14.40;99.90;;;15.30;56.93;99878.06;4991715;27;98156;-53
2021/11/04 04:11:04;;;;;;;60.83;37.17;;;14.70;99.90;;;15.40;56.39;99879.16;4992589;28;99490;-53
2021/11/04 04:13:30;;;;;;;62.73;38.00;;;14.80;99.90;;;15.31;52.06;99890.41;4992681;28;97423;-50
2021/11/04 04:15:57;;;;;;;58.80;36.13;;;14.70;99.90;;;15.29;53.58;99898.47;4992247;28;97269;-50
2021/11/04 04:18:23;;;;;;;60.37;36.33;;;14.70;99.90;;;15.22;53.06;99899.00;4993075;27;103176;-54
2021/11/04 04:20:50;;;;;;;59.07;38.27;;;14.60;99.90;;;15.14;56.08;99895.03;4994754;28;102304;-51
2021/11/04 04:23:17;;;;;;;58.37;35.93;;;14.40;99.90;;;15.15;56.35;99898.53;4997597;27;97229;-51
2021/11/04 04:25:44;;;;;;;56.27;35.20;;;14.40;99.90;;;15.16;56.75;99906.41;4997655;27;97502;-51
2021/11/04 04:28:10;;;;;;;55.90;34.93;;;14.50;99.90;;;15.22;55.63;99904.31;4993275;28;97796;-50
2021/11/04 04:30:36;;;;;;;57.10;35.37;;;14.60;99.90;;;15.25;56.08;99907.63;5014604;27;99249;-52
2021/11/04 04:33:02;;;;;;;54.60;34.67;;;14.60;99.90;;;15.33;55.23;99915.91;4997725;28;99846;-51
2021/11/04 04:35:28;;;;;;;52.67;33.20;;;14.70;99.90;;;15.36;56.29;99917.53;4990958;27;97294;-51
2021/11/04 04:37:54;;;;;;;50.97;33.57;;;14.70;99.90;;;15.33;53.91;99923.03;4992034;27;97475;-53
2021/11/04 04:40:20;;;;;;;53.40;32.43;;;14.60;99.90;;;15.22;56.57;99922.91;4997952;27;98605;-52
2021/11/04 04:42:46;;;;;;;54.30;33.27;;;14.40;99.90;;;15.31;56.08;99932.91;4990839;27;97743;-51
2021/11/04 04:45:16;;;;;;;53.97;31.93;;;14.50;99.90;;;15.32;55.50;99938.13;4991704;27;98368;-54
2021/11/04 04:47:42;;;;;;;56.73;33.90;;;14.50;99.90;;;15.26;55.46;99943.00;4982142;27;101962;-47
2021/11/04 04:50:09;;;;;;;50.80;32.23;;;14.50;99.90;;;15.23;55.65;99945.88;5021405;27;97436;-51
2021/11/04 04:52:35;;;;;;;52.73;32.10;;;14.50;99.90;;;15.16;54.62;99948.91;4997656;27;97357;-47
2021/11/04 04:55:02;;;;;;;58.23;33.73;;;14.40;99.90;;;15.07;54.57;99954.84;4995589;28;99312;-49
2021/11/04 04:57:28;;;;;;;54.30;33.07;;;14.30;99.90;;;15.08;56.68;99956.53;4996680;27;97043;-49
2021/11/04 04:59:57;;;;;;;57.77;34.87;;;14.30;99.90;;;15.04;56.39;99960.34;4997807;28;112638;-48
2021/11/04 05:02:24;;;;;;;58.47;35.63;;;14.30;99.90;;;14.97;56.70;99955.53;5010606;27;99275;-53
2021/11/04 05:04:51;;;;;;;55.13;34.10;;;14.20;99.90;;;14.98;56.58;99949.28;4991954;28;97739;-48
2021/11/04 05:07:18;;;;;;;56.07;32.73;;;14.20;99.90;;;15.04;56.79;99955.03;4994291;28;97349;-49
2021/11/04 05:09:44;;;;;;;57.67;34.47;;;14.30;99.90;;;14.97;53.89;99951.06;4985749;28;98099;-47
2021/11/04 05:12:10;;;;;;;58.03;35.03;;;14.30;99.90;;;15.03;56.54;99955.13;4994543;27;96771;-49
2021/11/04 05:14:37;;;;;;;50.40;32.43;;;14.30;99.90;;;15.11;56.71;99955.50;4985670;27;99688;-51
2021/11/04 05:17:04;;;;;;;57.23;32.63;;;14.40;99.90;;;15.17;56.11;99955.94;4994342;28;97457;-54
2021/11/04 05:19:30;;;;;;;53.87;31.60;;;14.40;99.90;;;15.21;55.70;99950.44;5001358;27;100483;-53
2021/11/04 05:21:56;;;;;;;51.27;31.43;;;14.40;99.90;;;15.21;55.21;99955.75;5005424;27;98271;-53
2021/11/04 05:24:23;;;;;;;54.67;33.00;;;14.50;99.90;;;15.10;55.18;99948.47;5001952;27;102275;-54
2021/11/04 05:26:50;;;;;;;54.30;31.30;;;14.40;99.90;;;15.07;54.21;99933.59;5001078;28;96975;-47
2021/11/04 05:29:16;;;;;;;52.27;30.87;;;14.30;99.90;;;15.07;55.67;99948.69;4997718;27;97572;-47
2021/11/04 05:31:42;;;;;;;52.47;31.83;;;14.20;99.90;;;14.96;54.96;99940.56;4991120;27;103539;-47
2021/11/04 05:34:08;;;;;;;53.03;30.90;;;14.10;99.90;;;15.03;55.01;99948.00;4989544;27;97830;-47
2021/11/04 05:36:34;;;;;;;54.73;31.63;;;14.20;99.90;;;14.94;55.65;99959.25;4994829;27;97407;-49
2021/11/04 05:39:00;;;;;;;53.30;31.40;;;14.10;99.90;;;14.75;53.39;99948.09;4988654;27;98043;-49
2021/11/04 05:41:26;;;;;;;52.90;30.80;;;13.90;99.90;;;14.70;53.66;99948.38;5007107;27;99902;-50
2021/11/04 05:43:52;;;;;;;54.60;31.33;;;13.90;99.90;;;14.71;54.44;99947.44;4991738;28;100868;-47
2021/11/04 05:46:18;;;;;;;50.27;30.80;;;13.90;99.90;;;14.54;55.27;99945.84;4998366;27;98490;-47
2021/11/04 05:48:44;;;;;;;52.40;30.77;;;13.80;99.90;;;14.53;57.85;99949.47;4994079;27;96686;-47
2021/11/04 05:51:10;;;;;;;55.40;31.70;;;13.80;99.90;;;14.65;57.33;99952.28;4993340;28;98725;-51
2021/11/04 05:53:37;;;;;;;52.33;30.50;;;13.90;99.90;;;14.61;54.22;99953.41;5000544;27;98560;-48
2021/11/04 05:56:03;;;;;;;53.00;32.13;;;14.00;99.90;;;14.48;56.21;99951.56;4997251;27;99445;-46
2021/11/04 05:58:29;;;;;;;54.27;31.73;;;13.80;99.90;;;14.36;54.16;99952.28;5009498;27;100165;-48
2021/11/04 06:00:55;;;;;;;56.30;32.63;;;13.80;99.90;;;14.11;53.40;99957.41;4992096;27;97820;-46
2021/11/04 06:03:21;;;;;;;56.93;32.93;;;13.60;99.90;;;14.04;57.01;99956.09;4997291;28;96933;-49
2021/11/04 06:05:47;;;;;;;54.67;33.40;;;13.50;99.90;;;14.05;57.72;99953.34;4992236;27;97541;-49
2021/11/04 06:08:13;;;;;;;62.57;35.83;;;13.50;99.90;;;13.63;53.27;99959.41;4997362;27;97480;-47
2021/11/04 06:10:39;;;;;;;63.27;35.47;;;13.40;99.90;;;13.80;58.07;99959.25;4992834;27;98389;-50
2021/11/04 06:13:05;;;;;;;56.10;33.50;;;13.30;99.90;;;13.90;56.16;99960.41;5014226;27;97389;-48
2021/11/04 06:15:30;;;;;;;57.67;34.57;;;13.50;99.90;;;14.00;57.61;99955.38;4988495;27;97731;-49
2021/11/04 06:17:57;;;;;;;63.63;36.33;;;13.50;99.90;;;13.87;55.56;99960.56;4995256;28;98573;-51
2021/11/04 06:20:22;;;;;;;58.43;35.43;;;13.50;99.90;;;13.82;55.08;99960.00;4991980;27;97008;-56
2021/11/04 06:22:48;;;;;;;62.27;35.37;;;13.40;99.90;;;13.79;56.13;99964.66;4996018;28;96973;-52
2021/11/04 06:25:14;;;;;;;60.17;35.13;;;13.40;99.90;;;13.56;57.25;99966.00;4992647;28;96988;-46
2021/11/04 06:27:40;;;;;;;57.37;35.13;;;13.20;99.90;;;13.76;59.14;99956.88;4986760;27;99336;-50
2021/11/04 06:30:09;;;;;;;56.60;33.53;;;13.30;99.90;;;13.66;55.96;99967.16;4993114;27;97374;-47
2021/11/04 06:32:35;;;;;;;59.30;34.53;;;13.20;99.90;;;13.50;56.24;99966.38;4986357;27;97247;-48
2021/11/04 06:35:07;;;;;;;58.87;33.77;;;13.10;99.90;;;13.53;56.65;99967.03;4991519;28;96910;-49
2021/11/04 06:37:34;;;;;;;57.80;34.63;;;13.00;99.90;;;13.57;58.17;99970.34;4995758;27;97215;-50
2021/11/04 06:39:59;;;;;;;61.30;35.67;;;13.10;99.90;;;13.33;58.21;99970.84;4993577;27;97226;-51
2021/11/04 06:42:25;;;;;;;62.53;36.00;;;12.90;99.90;;;13.23;56.24;99974.97;5008717;27;96806;-47
2021/11/04 06:44:51;;;;;;;61.63;35.90;;;12.80;99.90;;;13.23;56.71;99969.66;4996374;28;96984;-46
2021/11/04 06:47:28;;;;;;;66.03;36.20;;;12.80;99.90;;;13.20;57.02;99983.09;4994321;28;108290;-47
2021/11/04 06:49:58;;;;;;;60.63;35.27;;;12.80;99.90;;;13.33;57.72;99992.03;4993138;28;102228;-49
2021/11/04 06:52:29;;;;;;;59.07;34.17;;;12.90;99.90;;;13.33;55.90;99981.44;4992018;27;97087;-47
2021/11/04 06:54:56;;;;;;;58.83;32.60;;;12.90;99.90;;;13.24;56.05;99986.41;4999515;28;97351;-52
2021/11/04 06:57:25;;;;;;;61.20;34.67;;;12.80;99.90;;;13.25;57.64;99994.28;4993289;27;98345;-53
2021/11/04 06:59:56;;;;;;;60.10;36.47;;;12.80;99.90;;;13.12;58.16;99993.22;4985069;27;100646;-48
2021/11/04 07:02:32;;;;;;;59.00;33.40;;;12.60;99.90;;;12.80;55.80;99993.22;4985761;27;97054;-53
2021/11/04 07:05:00;;;;;;;60.20;34.90;;;12.50;99.90;;;13.01;60.41;99990.31;4973923;27;99112;-48
2021/11/04 07:07:26;;;;;;;60.30;34.80;;;12.50;99.90;;;13.08;58.85;99986.41;4962128;27;98622;-53
2021/11/04 07:09:52;;;;;;;65.40;35.83;;;12.50;99.90;;;13.19;59.04;99999.06;4968907;27;102568;-53
2021/11/04 07:12:18;;;;;;;56.30;33.13;;;12.60;99.90;;;13.33;59.17;100001.78;4968844;28;99056;-47
2021/11/04 07:14:44;;;;;;;61.90;34.30;;;12.70;99.90;;;13.36;60.47;100002.47;4965648;27;98460;-52
2021/11/04 07:17:13;;;;;;;61.70;33.13;;;12.80;99.90;;;13.09;55.75;100009.28;4970670;27;98424;-51
2021/11/04 07:19:43;;;;;;;60.87;35.10;;;12.70;99.90;;;13.15;59.89;100006.28;4970088;27;100007;-48
2021/11/04 07:22:39;;;;;;;64.37;35.53;;;12.60;99.90;;;13.44;60.35;100009.09;4974873;27;97347;-52
2021/11/04 07:25:14;;;;;;;62.33;33.87;;;12.80;99.90;;;13.35;55.25;100021.09;4985124;27;98949;-51
2021/11/04 07:27:51;;;;;;;57.40;32.30;;;12.80;99.90;;;13.54;56.21;100021.72;4962289;27;98762;-50
2021/11/04 07:30:19;;;;;;;59.87;32.67;;;13.00;99.90;;;13.30;53.60;100029.28;4967900;27;102929;-47
2021/11/04 07:32:50;;;;;;;56.47;32.30;;;12.80;99.90;;;13.57;57.51;100026.00;4988682;27;96953;-50
2021/11/04 07:35:19;;;;;;;56.40;31.57;;;12.90;99.90;;;13.84;58.74;100028.84;4971145;28;97561;-48
2021/11/04 07:37:46;;;;;;;56.97;32.30;;;13.10;99.90;;;13.88;57.39;100028.56;4970085;27;99136;-51
2021/11/04 07:40:15;;;;;;;63.27;35.50;;;13.20;99.90;;;13.81;53.76;100034.31;4966181;27;99210;-51
2021/11/04 07:42:43;;;;;;;57.30;34.27;;;13.20;99.90;;;13.67;55.00;100045.72;4968845;27;100240;-51
2021/11/04 07:45:10;;;;;;;63.73;36.03;;;13.10;99.90;;;13.72;53.17;100054.25;4967210;27;96897;-54
2021/11/04 07:47:41;;;;;;;59.40;35.23;;;13.20;99.90;;;13.75;56.59;100047.94;4966817;28;98823;-53
2021/11/04 07:50:12;;;;;;;59.40;34.00;;;13.10;99.90;;;13.84;58.10;100045.59;4974746;28;99680;-50
2021/11/04 07:52:40;;;;;;;60.70;35.27;;;13.10;99.90;;;13.87;53.77;100061.31;4966203;27;98530;-53
2021/11/04 07:55:07;;;;;;;58.53;34.30;;;13.30;99.90;;;13.83;57.71;100065.09;4971680;28;99073;-47
2021/11/04 07:57:37;;;;;;;53.00;31.20;;;13.10;99.90;;;13.97;58.26;100069.59;4960907;27;98800;-52
2021/11/04 08:00:07;;;;;;;53.17;33.17;;;13.20;99.90;;;14.01;55.04;100079.06;4991698;27;100069;-54
2021/11/04 08:02:33;;;;;;;51.70;32.10;;;13.20;99.90;;;14.17;57.68;100079.84;4961266;27;99110;-48
2021/11/04 08:05:00;;;;;;;76.70;49.83;;;13.30;99.90;;;14.20;57.94;100089.47;4966570;27;99267;-51
2021/11/04 08:07:29;;;;;;;49.30;30.60;;;13.30;99.90;;;14.42;56.75;100089.88;4960994;27;103628;-52
2021/11/04 08:09:56;;;;;;;61.67;37.70;;;13.60;99.90;;;12.85;54.67;100088.25;4969837;27;97548;-46
2021/11/04 08:12:22;;;;;;;66.07;40.13;;;12.60;99.90;;;11.26;58.47;100090.13;4966887;27;97704;-56
2021/11/04 08:14:48;;;;;;;73.23;41.33;;;11.00;99.90;;;10.51;61.55;100088.31;4994560;27;97821;-46
2021/11/04 08:17:14;;;;;;;68.60;39.13;;;10.40;99.90;;;10.00;63.43;100091.41;4981509;27;99685;-51
2021/11/04 08:19:39;;;;;;;63.50;35.47;;;9.90;99.90;;;10.58;66.98;100097.69;4960873;27;102988;-49
2021/11/04 08:22:05;;;;;;;59.00;34.57;;;10.10;99.90;;;11.33;64.16;100104.78;4967781;28;105243;-47
2021/11/04 08:24:31;;;;;;;55.90;32.83;;;10.80;99.90;;;11.88;62.46;100108.28;4958703;27;97737;-47
2021/11/04 08:26:58;;;;;;;54.37;32.30;;;11.40;99.90;;;12.31;62.80;100114.03;4968665;27;99222;-49
2021/11/04 08:29:24;;;;;;;51.73;31.37;;;11.80;99.90;;;12.76;61.93;100102.84;4961910;27;98358;-45
2021/11/04 08:31:50;;;;;;;48.47;30.30;;;12.20;99.90;;;13.26;60.39;100104.56;4972910;27;96912;-50
2021/11/04 08:34:16;;;;;;;49.93;31.23;;;12.80;99.90;;;13.52;57.66;100104.91;4978315;28;97231;-48
2021/11/04 08:36:43;;;;;;;50.23;32.60;;;13.00;99.90;;;13.43;54.60;100114.22;4968127;27;102351;-45
2021/11/04 08:39:10;;;;;;;53.63;34.70;;;13.00;99.90;;;13.65;56.91;100113.88;4992507;27;98776;-46
2021/11/04 08:41:36;;;;;;;53.87;33.97;;;13.00;99.90;;;13.89;57.48;100114.28;4968702;27;98809;-48
2021/11/04 08:44:02;;;;;;;56.03;35.03;;;13.20;99.90;;;13.65;56.35;100116.53;4970528;27;97127;-47
2021/11/04 08:46:29;;;;;;;50.00;32.93;;;12.90;99.90;;;13.80;57.37;100118.28;4961449;27;101046;-47
2021/11/04 08:48:55;;;;;;;35.80;23.33;;;13.00;99.90;;;14.09;57.59;100118.41;4968230;27;100121;-47
2021/11/04 08:51:22;;;;;;;48.20;31.87;;;13.40;99.90;;;14.25;55.71;100127.16;4968002;27;97875;-49
2021/11/04 08:53:48;;;;;;;49.63;31.73;;;13.60;99.90;;;14.34;56.00;100128.44;4967250;28;98359;-48
2021/11/04 08:56:14;;;;;;;47.63;30.30;;;13.60;99.90;;;14.45;56.28;100137.47;4973433;28;99566;-47
2021/11/04 08:58:39;;;;;;;48.07;31.60;;;13.70;99.90;;;14.57;56.13;100136.75;4961366;27;97843;-46
2021/11/04 09:01:06;;;;;;;49.80;32.33;;;13.70;99.90;;;14.42;51.34;100142.94;4970494;28;98595;-45
2021/11/04 09:03:34;;;;;;;47.67;30.37;;;13.70;99.90;;;14.56;55.96;100145.66;4964784;27;102083;-48
2021/11/04 09:06:01;;;;;;;43.00;29.43;;;13.70;99.90;;;14.58;54.79;100138.44;4972754;28;96924;-48
2021/11/04 09:08:27;;;;;;;37.63;25.80;;;13.70;99.90;;;14.75;55.56;100144.53;4959353;27;99522;-45
2021/11/04 09:10:53;;;;;;;43.07;29.53;;;13.90;99.90;;;14.82;55.23;100143.22;4969010;28;96920;-46
2021/11/04 09:13:20;;;;;;;44.60;29.63;;;14.00;99.90;;;14.95;55.40;100146.84;4971019;28;98407;-46
2021/11/04 09:15:46;;;;;;;45.93;30.07;;;14.20;99.90;;;14.97;50.93;100150.25;4964718;27;98669;-47
2021/11/04 09:18:12;;;;;;;44.73;28.73;;;14.30;99.90;;;15.08;54.99;100153.09;4997140;27;99788;-46
2021/11/04 09:20:38;;;;;;;43.17;30.20;;;14.30;99.90;;;15.18;54.34;100156.00;4956965;27;97340;-49
2021/11/04 09:23:04;;;;;;;46.33;32.90;;;14.50;99.90;;;15.28;53.86;100154.50;4974508;27;97633;-46
2021/11/04 09:25:31;;;;;;;54.40;34.13;;;14.50;99.90;;;15.28;53.75;100158.97;4984748;27;98616;-49
2021/11/04 09:27:57;;;;;;;54.53;35.30;;;14.50;99.90;;;15.37;54.34;100153.94;4969946;28;97599;-49
2021/11/04 09:30:25;;;;;;;48.27;32.10;;;14.70;99.90;;;15.53;53.96;100148.47;4966616;27;96861;-49
2021/11/04 09:32:52;;;;;;;52.53;34.30;;;15.00;99.90;;;15.63;53.47;100148.78;4946654;28;98570;-46
2021/11/04 09:35:18;;;;;;;27.40;19.23;;;15.20;99.90;;;15.70;53.39;100147.41;4965892;28;98829;-46
2021/11/04 09:37:45;;;;;;;51.87;33.10;;;15.20;99.90;;;15.67;53.48;100156.47;4958980;27;100284;-46
2021/11/04 09:40:13;;;;;;;51.83;33.60;;;15.10;99.90;;;15.77;53.17;100168.22;4967412;27;99297;-49
2021/11/04 09:42:39;;;;;;;51.07;33.00;;;15.20;99.90;;;15.83;53.29;100166.09;4963386;27;98655;-45
2021/11/04 09:45:06;;;;;;;53.37;34.87;;;15.30;99.90;;;15.63;48.11;100170.91;4971513;27;99815;-51
2021/11/04 09:47:33;;;;;;;45.67;31.60;;;15.30;99.30;;;15.76;53.19;100171.78;4972367;27;98538;-50
2021/11/04 09:50:21;;;;;;;47.53;31.43;;;15.20;99.90;;;15.94;53.20;100172.44;4970889;27;99249;-50
2021/11/04 09:52:55;;;;;;;46.57;30.30;;;15.30;99.90;;;16.04;52.83;100177.97;4958297;28;97100;-51
2021/11/04 09:55:26;;;;;;;49.83;33.43;;;15.50;99.90;;;16.14;52.79;100187.06;4964435;28;98037;-48
2021/11/04 09:57:57;;;;;;;48.83;32.73;;;15.70;99.90;;;16.24;51.97;100182.84;4963162;27;100035;-50
2021/11/04 10:00:41;;;;;;;47.70;31.33;;;15.80;99.90;;;16.29;52.19;100186.06;4974218;27;98203;-51
2021/11/04 10:03:13;;;;;;;48.17;32.43;;;15.80;99.90;;;16.34;52.02;100189.25;4965342;27;98853;-49
2021/11/04 10:05:47;;;;;;;43.83;28.97;;;15.90;99.90;;;16.40;52.03;100192.47;4962196;27;99628;-48